Time;durP1;ratioP1;P1;durP2;ratioP2;P2;SDS_P1;SDS_P2;PMS_P1;PMS_P2;Temp;Humidity;BMP_temperature;BMP_pressure;BME280_temperature;BME280_humidity;BME280_pressure;Samples;Min_cycle;Max_cycle;Signal;HPM_P1;HPM_P2
2023/03/07 00:01:36;;;;;;;;;;;;;;;1.34;81.55;95317.09;5020326;28;19948;-74
2023/03/07 00:04:03;;;;;;;;;;;;;;;1.33;81.57;95310.34;5030189;28;20020;-74
2023/03/07 00:06:29;;;;;;;;;;;;;;;1.35;81.55;95307.59;5030054;28;19950;-74
2023/03/07 00:08:56;;;;;;;;;;;;;;;1.33;81.49;95317.31;5029986;28;20546;-74
2023/03/07 00:11:22;;;;;;;;;;;;;;;1.32;81.49;95323.44;5029909;28;20016;-74
2023/03/07 00:13:48;;;;;;;;;;;;;;;1.31;81.50;95314.91;5012436;28;19955;-74
2023/03/07 00:16:16;;;;;;;;;;;;;;;1.28;81.29;95317.88;5031065;28;20291;-73
2023/03/07 00:18:42;;;;;;;;;;;;;;;1.26;81.50;95313.88;5033487;28;20316;-74
2023/03/07 00:21:09;;;;;;;;;;;;;;;1.26;81.53;95319.84;5033277;28;19965;-74
2023/03/07 00:23:36;;;;;;;;;;;;;;;1.25;81.53;95315.66;5033328;28;19947;-74
2023/03/07 00:26:03;;;;;;;;;;;;;;;1.24;81.85;95324.41;5033310;28;19946;-74
2023/03/07 00:28:30;;;;;;;;;;;;;;;1.24;81.72;95327.00;5033218;28;20423;-74
2023/03/07 00:31:00;;;;;;;;;;;;;;;1.25;81.79;95335.53;5033352;28;20297;-73
2023/03/07 00:33:26;;;;;;;;;;;;;;;1.23;81.91;95338.28;5033002;28;19952;-74
2023/03/07 00:35:53;;;;;;;;;;;;;;;1.21;81.77;95332.50;5033224;28;19948;-75
2023/03/07 00:38:19;;;;;;;;;;;;;;;1.19;82.28;95334.47;5033264;28;19954;-74
2023/03/07 00:40:45;;;;;;;;;;;;;;;1.14;82.04;95332.47;5033228;28;20002;-74
2023/03/07 00:43:10;;;;;;;;;;;;;;;1.11;82.00;95327.66;5033115;28;19950;-73
2023/03/07 00:45:36;;;;;;;;;;;;;;;1.10;82.18;95330.44;5033043;28;20057;-74
2023/03/07 00:48:02;;;;;;;;;;;;;;;1.09;82.35;95318.50;5032899;28;20335;-74
2023/03/07 00:50:28;;;;;;;;;;;;;;;1.07;82.35;95318.72;5032955;28;19970;-74
2023/03/07 00:52:54;;;;;;;;;;;;;;;1.06;82.18;95318.91;5032743;28;19956;-74
2023/03/07 00:55:20;;;;;;;;;;;;;;;1.04;82.06;95306.16;5033405;28;19951;-74
2023/03/07 00:57:45;;;;;;;;;;;;;;;1.01;81.96;95303.97;5032619;28;19948;-74
2023/03/07 01:00:11;;;;;;;;;;;;;;;0.97;82.37;95303.53;5032814;28;19969;-74
2023/03/07 01:02:37;;;;;;;;;;;;;;;0.95;82.47;95307.28;5032879;28;19950;-74
2023/03/07 01:05:03;;;;;;;;;;;;;;;0.95;82.54;95307.28;5032708;28;19998;-74
2023/03/07 01:07:29;;;;;;;;;;;;;;;0.93;82.76;95307.47;5032750;28;19947;-75
2023/03/07 01:09:55;;;;;;;;;;;;;;;0.93;82.85;95299.72;5032815;28;19986;-75
2023/03/07 01:12:21;;;;;;;;;;;;;;;0.92;82.99;95297.31;5032612;28;19945;-74
2023/03/07 01:14:49;;;;;;;;;;;;;;;0.94;82.94;95297.94;5032632;28;20014;-74
2023/03/07 01:17:15;;;;;;;;;;;;;;;0.93;83.73;95304.09;5032552;28;19947;-74
2023/03/07 01:19:40;;;;;;;;;;;;;;;0.91;83.24;95296.53;5014607;28;20007;-75
2023/03/07 01:22:06;;;;;;;;;;;;;;;0.89;83.15;95293.34;5032440;28;19994;-74
2023/03/07 01:24:32;;;;;;;;;;;;;;;0.92;83.01;95290.38;5033100;28;19947;-74
2023/03/07 01:26:58;;;;;;;;;;;;;;;0.94;83.00;95292.78;5032179;28;19942;-74
2023/03/07 01:29:24;;;;;;;;;;;;;;;0.92;82.80;95282.63;5031707;28;19955;-74
2023/03/07 01:31:50;;;;;;;;;;;;;;;0.89;82.59;95280.44;5033275;28;19951;-74
2023/03/07 01:34:15;;;;;;;;;;;;;;;0.85;82.61;95274.03;5014706;28;19957;-74
2023/03/07 01:36:41;;;;;;;;;;;;;;;0.86;82.96;95285.16;5032129;28;20002;-74
2023/03/07 01:39:12;;;;;;;;;;;;;;;0.83;82.66;95275.22;5032247;28;19952;-74
2023/03/07 01:41:39;;;;;;;;;;;;;;;0.80;82.82;95276.38;5032131;28;19977;-74
2023/03/07 01:44:12;;;;;;;;;;;;;;;0.79;82.78;95270.41;5032060;28;19975;-74
2023/03/07 01:46:43;;;;;;;;;;;;;;;0.75;83.05;95269.19;5032312;28;19979;-75
2023/03/07 01:49:17;;;;;;;;;;;;;;;0.75;82.93;95263.22;5019038;28;19949;-74
2023/03/07 01:51:45;;;;;;;;;;;;;;;0.75;83.44;95268.38;5031778;28;20037;-74
2023/03/07 01:54:12;;;;;;;;;;;;;;;0.76;83.30;95268.22;5031786;28;20283;-74
2023/03/07 01:56:38;;;;;;;;;;;;;;;0.79;83.69;95262.66;5031887;28;19952;-74
2023/03/07 01:59:05;;;;;;;;;;;;;;;0.81;83.07;95259.91;5014092;28;19950;-74
2023/03/07 02:01:32;;;;;;;;;;;;;;;0.85;82.95;95262.94;5031613;28;19961;-74
2023/03/07 02:04:36;;;;;;;;;;;;;;;0.86;82.95;95259.34;5031667;28;19948;-74
2023/03/07 02:07:02;;;;;;;;;;;;;;;0.87;82.93;95258.38;5052481;28;19947;-73
2023/03/07 02:09:30;;;;;;;;;;;;;;;0.90;82.74;95252.84;5052678;28;19955;-73
2023/03/07 02:11:55;;;;;;;;;;;;;;;0.88;82.90;95255.59;5042227;28;19941;-74
2023/03/07 02:14:21;;;;;;;;;;;;;;;0.88;82.88;95250.44;5031463;28;19954;-74
2023/03/07 02:16:47;;;;;;;;;;;;;;;0.90;83.10;95256.19;5014802;28;20001;-74
2023/03/07 02:19:21;;;;;;;;;;;;;;;0.92;82.57;95254.22;5031595;28;19955;-74
2023/03/07 02:22:02;;;;;;;;;;;;;;;0.96;82.67;95252.88;5031347;28;19968;-74
2023/03/07 02:24:35;;;;;;;;;;;;;;;0.99;82.85;95249.94;5031535;28;19949;-74
2023/03/07 02:27:01;;;;;;;;;;;;;;;1.01;82.52;95240.22;5031230;28;19944;-74
2023/03/07 02:29:27;;;;;;;;;;;;;;;1.04;82.57;95243.41;5031439;28;19990;-73
2023/03/07 02:31:53;;;;;;;;;;;;;;;1.01;82.01;95235.06;5032671;28;19943;-74
2023/03/07 02:34:20;;;;;;;;;;;;;;;0.99;82.50;95231.88;5031120;28;20406;-74
2023/03/07 02:36:47;;;;;;;;;;;;;;;1.00;82.53;95230.06;5013878;28;19952;-74
2023/03/07 02:39:13;;;;;;;;;;;;;;;1.02;82.34;95222.94;5030789;28;19956;-74
2023/03/07 02:41:39;;;;;;;;;;;;;;;0.99;82.13;95210.44;5030515;28;19961;-74
2023/03/07 02:44:05;;;;;;;;;;;;;;;0.96;81.66;95203.84;5031021;28;20350;-74
2023/03/07 02:46:31;;;;;;;;;;;;;;;0.90;81.61;95208.94;5031114;28;19960;-74
2023/03/07 02:48:56;;;;;;;;;;;;;;;0.86;81.73;95205.16;5031079;28;20392;-74
2023/03/07 02:51:22;;;;;;;;;;;;;;;0.83;81.58;95210.69;4997117;28;20400;-75
2023/03/07 02:53:48;;;;;;;;;;;;;;;0.81;81.89;95211.66;5030891;28;20289;-74
2023/03/07 02:56:15;;;;;;;;;;;;;;;0.83;82.00;95215.88;5013815;28;20407;-74
2023/03/07 02:58:41;;;;;;;;;;;;;;;0.85;81.80;95208.72;5030951;28;19948;-74
2023/03/07 03:01:07;;;;;;;;;;;;;;;0.88;81.83;95203.19;5046166;28;19960;-74
2023/03/07 03:03:32;;;;;;;;;;;;;;;0.90;81.92;95204.59;5030923;28;19956;-74
2023/03/07 03:05:58;;;;;;;;;;;;;;;0.92;81.85;95209.56;5030694;28;19957;-74
2023/03/07 03:08:24;;;;;;;;;;;;;;;0.88;81.55;95203.97;5030458;28;20005;-74
2023/03/07 03:10:51;;;;;;;;;;;;;;;0.87;81.38;95204.19;5030998;28;19955;-74
2023/03/07 03:13:18;;;;;;;;;;;;;;;0.87;81.83;95206.75;5029931;28;19952;-74
2023/03/07 03:15:44;;;;;;;;;;;;;;;0.88;81.97;95201.38;5030700;28;19957;-74
2023/03/07 03:18:10;;;;;;;;;;;;;;;0.89;81.51;95203.00;5013142;28;19994;-74
2023/03/07 03:20:42;;;;;;;;;;;;;;;0.87;81.65;95210.13;5030353;28;19966;-74
2023/03/07 03:23:08;;;;;;;;;;;;;;;0.84;81.65;95210.53;5030521;28;19954;-74
2023/03/07 03:25:34;;;;;;;;;;;;;;;0.82;81.54;95202.16;5030867;28;19950;-74
2023/03/07 03:28:00;;;;;;;;;;;;;;;0.80;81.59;95204.94;5030632;28;19950;-74
2023/03/07 03:30:31;;;;;;;;;;;;;;;0.81;81.77;95195.41;5030684;28;19973;-74
2023/03/07 03:32:57;;;;;;;;;;;;;;;0.83;81.89;95197.78;5030560;28;19951;-75
2023/03/07 03:35:23;;;;;;;;;;;;;;;0.83;81.82;95196.00;5030556;28;19972;-74
2023/03/07 03:37:48;;;;;;;;;;;;;;;0.83;81.65;95200.38;5030529;28;19953;-74
2023/03/07 03:40:16;;;;;;;;;;;;;;;0.79;81.60;95199.94;5030193;28;19965;-74
2023/03/07 03:42:42;;;;;;;;;;;;;;;0.76;81.64;95201.13;5030475;28;19961;-74
2023/03/07 03:45:09;;;;;;;;;;;;;;;0.73;81.84;95204.06;5030349;28;19974;-74
2023/03/07 03:47:35;;;;;;;;;;;;;;;0.70;82.12;95204.44;5030424;28;19952;-75
2023/03/07 03:50:01;;;;;;;;;;;;;;;0.69;82.44;95208.00;5030568;28;20311;-74
2023/03/07 03:52:27;;;;;;;;;;;;;;;0.66;82.48;95197.28;5032903;28;19947;-74
2023/03/07 03:54:53;;;;;;;;;;;;;;;0.65;82.04;95190.50;5034054;28;20427;-74
2023/03/07 03:57:19;;;;;;;;;;;;;;;0.66;82.31;95195.50;5033814;28;19950;-74
2023/03/07 03:59:46;;;;;;;;;;;;;;;0.68;82.06;95195.31;5033700;28;19948;-73
2023/03/07 04:02:12;;;;;;;;;;;;;;;0.66;82.20;95192.13;5033353;28;19972;-74
2023/03/07 04:04:38;;;;;;;;;;;;;;;0.67;82.01;95185.97;5033592;28;19946;-74
2023/03/07 04:07:04;;;;;;;;;;;;;;;0.65;81.95;95185.34;5033411;28;19948;-74
2023/03/07 04:09:30;;;;;;;;;;;;;;;0.62;82.63;95188.31;5033841;28;19959;-74
2023/03/07 04:11:56;;;;;;;;;;;;;;;0.59;82.17;95184.34;5033463;28;19974;-74
2023/03/07 04:14:22;;;;;;;;;;;;;;;0.60;82.32;95191.06;5033849;28;20385;-74
2023/03/07 04:16:48;;;;;;;;;;;;;;;0.63;82.22;95184.72;5033281;28;19956;-76
2023/03/07 04:19:14;;;;;;;;;;;;;;;0.63;82.28;95174.41;5033733;28;20006;-74
2023/03/07 04:21:40;;;;;;;;;;;;;;;0.64;81.97;95178.59;5034007;28;19967;-74
2023/03/07 04:24:06;;;;;;;;;;;;;;;0.65;82.18;95170.69;5015817;28;19959;-74
2023/03/07 04:26:33;;;;;;;;;;;;;;;0.65;81.83;95164.72;5033544;28;20295;-74
2023/03/07 04:28:59;;;;;;;;;;;;;;;0.64;81.83;95171.66;5033205;28;19981;-74
2023/03/07 04:31:26;;;;;;;;;;;;;;;0.64;81.55;95157.97;5033319;28;19943;-74
2023/03/07 04:33:52;;;;;;;;;;;;;;;0.62;81.95;95171.03;5033450;28;19947;-74
2023/03/07 04:36:18;;;;;;;;;;;;;;;0.60;81.35;95155.75;5033491;28;20320;-74
2023/03/07 04:38:45;;;;;;;;;;;;;;;0.59;81.06;95161.13;5015394;28;20438;-74
2023/03/07 04:41:16;;;;;;;;;;;;;;;0.58;81.27;95155.13;5033070;28;19953;-74
2023/03/07 04:43:42;;;;;;;;;;;;;;;0.60;80.97;95150.59;5032833;28;19980;-74
2023/03/07 04:46:08;;;;;;;;;;;;;;;0.61;81.30;95156.56;5033036;28;19956;-74
2023/03/07 04:48:34;;;;;;;;;;;;;;;0.62;80.84;95140.09;5015771;28;19963;-74
2023/03/07 04:51:00;;;;;;;;;;;;;;;0.62;81.08;95147.03;5032804;28;19946;-74
2023/03/07 04:53:26;;;;;;;;;;;;;;;0.60;81.07;95153.16;5033042;28;19941;-74
2023/03/07 04:56:01;;;;;;;;;;;;;;;0.60;81.33;95155.75;5032728;28;20385;-73
2023/03/07 04:58:28;;;;;;;;;;;;;;;0.60;81.38;95150.59;5032702;28;20318;-74
2023/03/07 05:00:57;;;;;;;;;;;;;;;0.59;80.94;95154.16;5032836;28;20327;-74
2023/03/07 05:03:23;;;;;;;;;;;;;;;0.57;81.25;95153.56;5031594;28;20299;-75
2023/03/07 05:05:49;;;;;;;;;;;;;;;0.54;81.45;95143.59;5032602;28;20451;-74
2023/03/07 05:08:15;;;;;;;;;;;;;;;0.52;81.35;95149.94;5032580;28;19951;-74
2023/03/07 05:10:41;;;;;;;;;;;;;;;0.51;81.37;95149.13;5032462;28;19951;-74
2023/03/07 05:13:07;;;;;;;;;;;;;;;0.50;81.19;95144.94;5032547;28;19957;-74
2023/03/07 05:15:34;;;;;;;;;;;;;;;0.49;81.15;95143.38;5032308;28;19960;-74
2023/03/07 05:17:59;;;;;;;;;;;;;;;0.48;80.69;95135.81;5032742;28;20349;-74
2023/03/07 05:20:26;;;;;;;;;;;;;;;0.46;80.82;95130.03;5032405;28;19973;-74
2023/03/07 05:22:52;;;;;;;;;;;;;;;0.45;80.81;95124.09;5032350;28;19944;-74
2023/03/07 05:25:17;;;;;;;;;;;;;;;0.47;80.72;95132.44;5032252;28;19980;-74
2023/03/07 05:27:43;;;;;;;;;;;;;;;0.48;80.63;95128.06;5032331;28;20317;-74
2023/03/07 05:30:09;;;;;;;;;;;;;;;0.46;80.28;95124.88;5032209;28;19954;-74
2023/03/07 05:32:35;;;;;;;;;;;;;;;0.39;80.53;95125.63;5032383;28;19953;-74
2023/03/07 05:35:02;;;;;;;;;;;;;;;0.35;80.69;95132.16;5014925;28;20304;-74
2023/03/07 05:37:28;;;;;;;;;;;;;;;0.32;80.81;95134.31;5031989;28;19951;-74
2023/03/07 05:39:53;;;;;;;;;;;;;;;0.32;81.21;95142.06;5032230;28;20041;-74
2023/03/07 05:42:19;;;;;;;;;;;;;;;0.34;81.23;95145.25;5014302;28;19960;-74
2023/03/07 05:44:45;;;;;;;;;;;;;;;0.33;81.35;95134.09;5032304;28;19973;-74
2023/03/07 05:47:11;;;;;;;;;;;;;;;0.37;80.91;95135.34;5032259;28;20041;-75
2023/03/07 05:49:37;;;;;;;;;;;;;;;0.36;81.37;95138.91;5031747;28;20358;-74
2023/03/07 05:52:03;;;;;;;;;;;;;;;0.36;81.77;95141.50;5032185;28;20365;-74
2023/03/07 05:54:29;;;;;;;;;;;;;;;0.36;81.78;95135.53;5031954;28;20413;-74
2023/03/07 05:56:54;;;;;;;;;;;;;;;0.37;81.42;95131.97;5031959;28;19953;-74
2023/03/07 05:59:20;;;;;;;;;;;;;;;0.38;81.56;95131.00;5031897;28;19952;-74
2023/03/07 06:01:46;;;;;;;;;;;;;;;0.37;81.25;95125.03;5032340;28;20418;-74
2023/03/07 06:04:12;;;;;;;;;;;;;;;0.37;81.26;95126.81;5031867;28;19953;-74
2023/03/07 06:06:38;;;;;;;;;;;;;;;0.40;81.52;95126.44;5031754;28;19957;-74
2023/03/07 06:09:04;;;;;;;;;;;;;;;0.40;81.22;95122.09;5031985;28;20390;-74
2023/03/07 06:11:30;;;;;;;;;;;;;;;0.45;81.32;95125.88;5031903;28;20424;-74
2023/03/07 06:13:57;;;;;;;;;;;;;;;0.49;81.26;95114.22;5014031;28;19954;-74
2023/03/07 06:16:23;;;;;;;;;;;;;;;0.50;80.90;95119.16;5031655;28;19958;-74
2023/03/07 06:18:48;;;;;;;;;;;;;;;0.53;80.29;95102.53;5031657;28;19954;-74
2023/03/07 06:21:15;;;;;;;;;;;;;;;0.50;79.66;95097.75;5031539;28;20008;-74
2023/03/07 06:23:41;;;;;;;;;;;;;;;0.46;79.74;95102.47;5031352;28;20395;-74
2023/03/07 06:26:09;;;;;;;;;;;;;;;0.46;79.54;95099.09;5031560;28;19948;-73
2023/03/07 06:28:35;;;;;;;;;;;;;;;0.40;79.90;95103.25;5031417;28;19948;-73
2023/03/07 06:31:06;;;;;;;;;;;;;;;0.39;79.89;95097.25;5031434;28;19995;-74
2023/03/07 06:33:32;;;;;;;;;;;;;;;0.37;79.53;95094.06;5031960;28;19948;-74
2023/03/07 06:35:58;;;;;;;;;;;;;;;0.39;79.78;95101.63;5013481;28;19949;-74
2023/03/07 06:38:24;;;;;;;;;;;;;;;0.42;79.81;95098.69;5031491;28;19949;-75
2023/03/07 06:40:56;;;;;;;;;;;;;;;0.47;79.74;95098.13;5031233;28;19961;-74
2023/03/07 06:43:22;;;;;;;;;;;;;;;0.50;79.70;95098.53;5030704;28;19946;-74
2023/03/07 06:45:48;;;;;;;;;;;;;;;0.55;80.07;95098.78;5031524;28;20035;-74
2023/03/07 06:48:13;;;;;;;;;;;;;;;0.60;79.46;95093.03;5030932;28;20400;-74
2023/03/07 06:50:39;;;;;;;;;;;;;;;0.68;79.41;95100.66;5030730;28;19951;-74
2023/03/07 06:53:05;;;;;;;;;;;;;;;0.76;79.04;95094.53;5030953;28;19955;-74
2023/03/07 06:55:31;;;;;;;;;;;;;;;0.84;78.74;95099.56;5031327;28;20366;-74
2023/03/07 06:57:57;;;;;;;;;;;;;;;0.93;78.69;95098.41;5013138;28;20350;-74
2023/03/07 07:00:23;;;;;;;;;;;;;;;0.99;78.02;95083.94;5030980;28;19976;-74
2023/03/07 07:02:49;;;;;;;;;;;;;;;1.06;78.10;95083.97;5031193;28;19979;-74
2023/03/07 07:05:14;;;;;;;;;;;;;;;1.13;77.84;95087.38;5013324;28;19947;-74
2023/03/07 07:07:40;;;;;;;;;;;;;;;1.18;78.08;95083.22;5030862;28;19946;-74
2023/03/07 07:10:06;;;;;;;;;;;;;;;1.25;77.58;95078.09;5030947;28;20406;-74
2023/03/07 07:12:33;;;;;;;;;;;;;;;1.29;77.82;95075.91;5030883;28;20330;-74
2023/03/07 07:15:01;;;;;;;;;;;;;;;1.34;77.54;95071.75;5030549;28;19949;-75
2023/03/07 07:17:28;;;;;;;;;;;;;;;1.35;77.20;95063.03;5031174;28;19953;-74
2023/03/07 07:19:54;;;;;;;;;;;;;;;1.39;77.48;95066.03;5030767;28;19945;-73
2023/03/07 07:22:19;;;;;;;;;;;;;;;1.44;77.51;95068.81;5013260;28;20432;-74
2023/03/07 07:24:45;;;;;;;;;;;;;;;1.49;77.22;95063.06;5030801;28;19948;-74
2023/03/07 07:27:11;;;;;;;;;;;;;;;1.56;77.27;95072.41;5015490;28;19947;-74
2023/03/07 07:29:37;;;;;;;;;;;;;;;1.66;77.21;95069.47;5034051;28;19949;-74
2023/03/07 07:32:03;;;;;;;;;;;;;;;1.74;76.94;95068.47;5034415;28;19998;-74
2023/03/07 07:34:29;;;;;;;;;;;;;;;1.87;77.09;95070.28;5034168;28;19954;-74
2023/03/07 07:36:55;;;;;;;;;;;;;;;2.14;76.25;95066.75;5034236;28;20025;-74
2023/03/07 07:39:22;;;;;;;;;;;;;;;2.50;75.16;95052.59;5034507;28;19949;-74
2023/03/07 07:41:48;;;;;;;;;;;;;;;2.92;73.45;95028.97;5034151;28;19966;-74
2023/03/07 07:44:13;;;;;;;;;;;;;;;3.24;71.10;95001.34;5034051;28;19968;-74
2023/03/07 07:46:39;;;;;;;;;;;;;;;3.56;71.57;95002.16;5033953;28;19952;-74
2023/03/07 07:49:05;;;;;;;;;;;;;;;3.77;70.58;94992.44;5033936;28;19996;-74
2023/03/07 07:51:32;;;;;;;;;;;;;;;3.95;68.66;94970.94;5033654;28;19952;-74
2023/03/07 07:53:58;;;;;;;;;;;;;;;4.05;68.33;94969.50;5033985;28;19950;-74
2023/03/07 07:56:24;;;;;;;;;;;;;;;4.05;68.92;94973.88;5033878;28;19949;-74
2023/03/07 07:58:50;;;;;;;;;;;;;;;4.05;69.01;94976.47;5033810;28;19947;-74
2023/03/07 08:01:21;;;;;;;;;;;;;;;4.05;68.07;94964.31;5033596;28;19969;-75
2023/03/07 08:03:47;;;;;;;;;;;;;;;4.06;66.74;94952.13;5033495;28;19948;-74
2023/03/07 08:06:17;;;;;;;;;;;;;;;4.09;67.82;94974.25;5034006;28;19949;-74
2023/03/07 08:08:43;;;;;;;;;;;;;;;4.12;66.35;94948.69;5033584;28;19945;-74
2023/03/07 08:11:08;;;;;;;;;;;;;;;4.24;68.55;94966.91;5033388;28;19945;-74
2023/03/07 08:13:34;;;;;;;;;;;;;;;4.40;67.35;94966.34;5033728;28;19945;-74
2023/03/07 08:16:07;;;;;;;;;;;;;;;4.53;66.28;94949.84;5033510;28;20043;-74
2023/03/07 08:18:33;;;;;;;;;;;;;;;4.50;66.78;94950.28;5033318;28;19944;-74
2023/03/07 08:20:58;;;;;;;;;;;;;;;4.42;67.43;94961.75;5033774;28;19948;-74
2023/03/07 08:23:24;;;;;;;;;;;;;;;4.34;65.62;94936.06;4999400;28;19951;-74
2023/03/07 08:25:50;;;;;;;;;;;;;;;4.25;66.50;94945.16;5033674;28;19949;-74
2023/03/07 08:28:16;;;;;;;;;;;;;;;4.17;66.60;94946.22;5015940;28;20316;-74
2023/03/07 08:30:42;;;;;;;;;;;;;;;4.06;66.41;94950.31;5033404;28;19942;-75
2023/03/07 08:33:08;;;;;;;;;;;;;;;3.97;66.86;94954.19;5033062;28;19944;-75
2023/03/07 08:35:34;;;;;;;;;;;;;;;3.89;64.60;94928.53;5033191;28;19983;-74
2023/03/07 08:38:00;;;;;;;;;;;;;;;3.79;63.82;94928.22;5032960;28;19997;-75
2023/03/07 08:40:29;;;;;;;;;;;;;;;3.71;65.42;94931.84;5033063;28;20335;-74
2023/03/07 08:42:57;;;;;;;;;;;;;;;3.65;66.22;94943.06;5015403;28;19964;-74
2023/03/07 08:45:23;;;;;;;;;;;;;;;3.66;66.60;94955.03;5032752;28;19971;-74
2023/03/07 08:47:55;;;;;;;;;;;;;;;3.61;66.30;94949.69;5033007;28;19946;-75
2023/03/07 08:50:22;;;;;;;;;;;;;;;3.60;66.79;94956.66;5033099;28;19947;-74
2023/03/07 08:52:48;;;;;;;;;;;;;;;3.58;65.00;94931.97;5033262;28;19947;-74
2023/03/07 08:55:15;;;;;;;;;;;;;;;3.57;63.96;94922.59;5032766;28;19951;-74
2023/03/07 08:57:41;;;;;;;;;;;;;;;3.55;66.21;94950.53;5032724;28;20428;-74
2023/03/07 09:00:09;;;;;;;;;;;;;;;3.53;65.63;94939.56;5032586;28;19959;-74
2023/03/07 09:02:35;;;;;;;;;;;;;;;3.53;66.19;94947.34;5033075;28;19963;-74
2023/03/07 09:05:01;;;;;;;;;;;;;;;3.54;66.88;94951.53;5032624;28;19943;-74
2023/03/07 09:07:26;;;;;;;;;;;;;;;3.56;66.16;94949.53;5032308;28;20320;-74
2023/03/07 09:09:52;;;;;;;;;;;;;;;3.59;66.03;94933.53;5033058;28;20411;-75
2023/03/07 09:12:18;;;;;;;;;;;;;;;3.60;66.95;94929.97;5032686;28;20456;-74
2023/03/07 09:14:44;;;;;;;;;;;;;;;3.57;65.21;94920.00;5032829;28;19953;-74
2023/03/07 09:17:10;;;;;;;;;;;;;;;3.58;66.09;94924.19;5032896;28;19976;-74
2023/03/07 09:19:36;;;;;;;;;;;;;;;3.54;66.91;94929.00;5032347;28;20127;-74
2023/03/07 09:22:01;;;;;;;;;;;;;;;3.52;65.36;94914.66;5032605;28;20008;-74
2023/03/07 09:24:28;;;;;;;;;;;;;;;3.49;66.26;94923.66;5032457;28;20052;-73
2023/03/07 09:26:54;;;;;;;;;;;;;;;3.45;66.01;94925.09;5032407;28;19947;-74
2023/03/07 09:29:20;;;;;;;;;;;;;;;3.42;66.83;94938.47;5032200;28;20365;-75
2023/03/07 09:31:46;;;;;;;;;;;;;;;3.42;67.50;94949.63;5032259;28;20033;-74
2023/03/07 09:34:11;;;;;;;;;;;;;;;3.43;67.62;94950.41;5014653;28;19952;-75
2023/03/07 09:36:37;;;;;;;;;;;;;;;3.45;67.42;94953.59;5032310;28;19944;-74
2023/03/07 09:39:03;;;;;;;;;;;;;;;3.42;66.84;94935.88;5032579;28;19955;-74
2023/03/07 09:41:32;;;;;;;;;;;;;;;3.37;66.57;94936.50;5032024;28;19973;-74
2023/03/07 09:44:20;;;;;;;;;;;;;;;3.34;65.86;94934.34;5032205;28;19978;-74
2023/03/07 09:46:59;;;;;;;;;;;;;;;3.35;66.69;94935.13;5032110;28;20616;-75
2023/03/07 09:49:28;;;;;;;;;;;;;;;3.34;65.99;94926.56;5031727;28;19958;-74
2023/03/07 09:51:56;;;;;;;;;;;;;;;3.38;65.87;94919.97;5032062;28;19946;-74
2023/03/07 09:54:25;;;;;;;;;;;;;;;3.40;65.78;94917.13;5031895;28;19948;-74
2023/03/07 09:56:53;;;;;;;;;;;;;;;3.41;65.77;94926.53;5031781;28;19940;-74
2023/03/07 09:59:23;;;;;;;;;;;;;;;3.38;63.95;94895.81;5032251;28;19957;-74
2023/03/07 10:01:50;;;;;;;;;;;;;;;3.33;64.17;94903.44;5031749;28;19972;-74
2023/03/07 10:04:20;;;;;;;;;;;;;;;3.32;64.49;94907.84;5031166;28;20297;-74
2023/03/07 10:06:50;;;;;;;;;;;;;;;3.34;64.78;94907.63;5014057;28;19946;-74
2023/03/07 10:09:18;;;;;;;;;;;;;;;3.32;64.99;94889.72;5031774;28;19947;-74
2023/03/07 10:11:51;;;;;;;;;;;;;;;3.35;65.67;94898.84;5031597;28;19948;-74
2023/03/07 10:14:35;;;;;;;;;;;;;;;3.38;63.80;94888.88;5032100;28;19951;-74
2023/03/07 10:17:03;;;;;;;;;;;;;;;3.42;64.14;94897.00;5031708;28;19941;-74
2023/03/07 10:19:43;;;;;;;;;;;;;;;3.44;63.25;94877.66;5031529;28;19948;-74
2023/03/07 10:22:11;;;;;;;;;;;;;;;3.51;64.89;94882.78;5031514;28;19961;-74
2023/03/07 10:24:44;;;;;;;;;;;;;;;3.53;63.65;94877.38;5031599;28;19951;-74
2023/03/07 10:27:11;;;;;;;;;;;;;;;3.51;61.38;94858.66;5031462;28;19950;-74
2023/03/07 10:29:48;;;;;;;;;;;;;;;3.49;62.11;94851.09;5031501;28;19948;-74
2023/03/07 10:32:32;;;;;;;;;;;;;;;3.53;61.18;94843.69;5031181;28;19951;-75
2023/03/07 10:35:10;;;;;;;;;;;;;;;3.52;62.36;94849.88;5031268;28;19948;-74
2023/03/07 10:37:59;;;;;;;;;;;;;;;3.49;58.97;94814.03;5013572;28;19944;-75
2023/03/07 10:40:28;;;;;;;;;;;;;;;3.45;60.85;94832.59;5018897;28;19950;-74
2023/03/07 10:42:55;;;;;;;;;;;;;;;3.43;59.81;94815.69;5031003;28;19960;-74
2023/03/07 10:45:21;;;;;;;;;;;;;;;3.42;60.45;94830.44;5013193;28;19966;-74
2023/03/07 10:47:47;;;;;;;;;;;;;;;3.41;61.30;94841.00;5031626;28;20426;-74
2023/03/07 10:50:32;;;;;;;;;;;;;;;3.44;60.60;94832.78;5030967;28;19947;-74
2023/03/07 10:52:59;;;;;;;;;;;;;;;3.49;61.29;94839.97;5031308;28;19940;-74
2023/03/07 10:55:32;;;;;;;;;;;;;;;3.53;60.19;94817.75;5031145;28;19950;-74
2023/03/07 10:58:10;;;;;;;;;;;;;;;3.55;60.64;94837.31;5031049;28;19952;-74
2023/03/07 11:00:36;;;;;;;;;;;;;;;3.57;61.33;94837.06;5029956;28;19957;-75
2023/03/07 11:03:02;;;;;;;;;;;;;;;3.56;60.71;94827.72;5030710;28;20031;-76
2023/03/07 11:05:30;;;;;;;;;;;;;;;3.56;60.13;94819.94;5013295;28;19962;-75
2023/03/07 11:07:56;;;;;;;;;;;;;;;3.60;61.42;94837.44;5031083;28;19950;-74
2023/03/07 11:10:33;;;;;;;;;;;;;;;3.62;60.45;94830.25;5030792;28;19961;-74
2023/03/07 11:13:05;;;;;;;;;;;;;;;3.66;60.51;94821.03;5031056;28;19950;-73
2023/03/07 11:15:31;;;;;;;;;;;;;;;3.67;61.25;94824.41;5030913;28;19956;-74
2023/03/07 11:17:57;;;;;;;;;;;;;;;3.69;59.54;94812.03;5030647;28;20305;-74
2023/03/07 11:20:23;;;;;;;;;;;;;;;3.69;59.36;94808.66;5030771;28;19950;-74
2023/03/07 11:22:49;;;;;;;;;;;;;;;3.63;58.53;94800.75;5030709;28;19967;-75
2023/03/07 11:25:25;;;;;;;;;;;;;;;3.55;56.65;94793.25;5030682;28;19943;-74
2023/03/07 11:27:52;;;;;;;;;;;;;;;3.49;56.28;94790.72;5013023;28;19941;-74
2023/03/07 11:30:18;;;;;;;;;;;;;;;3.42;57.36;94796.75;5030750;28;19948;-74
2023/03/07 11:33:03;;;;;;;;;;;;;;;3.42;57.48;94807.13;5030381;28;20060;-76
2023/03/07 11:35:41;;;;;;;;;;;;;;;3.38;57.38;94815.50;5022575;28;19945;-74
2023/03/07 11:38:12;;;;;;;;;;;;;;;3.35;57.91;94811.56;5031222;28;19959;-74
2023/03/07 11:40:55;;;;;;;;;;;;;;;3.38;60.01;94831.06;5030696;28;19946;-74
2023/03/07 11:43:23;;;;;;;;;;;;;;;3.41;59.46;94822.88;5030238;28;19965;-74
2023/03/07 11:45:49;;;;;;;;;;;;;;;3.43;59.29;94826.84;5030221;28;19945;-74
2023/03/07 11:48:33;;;;;;;;;;;;;;;3.43;59.28;94834.59;5029829;28;20341;-75
2023/03/07 11:51:02;;;;;;;;;;;;;;;3.38;58.88;94824.09;5020854;28;19947;-74
2023/03/07 11:53:46;;;;;;;;;;;;;;;3.36;59.46;94831.28;5012630;28;20418;-74
2023/03/07 11:56:21;;;;;;;;;;;;;;;3.35;62.32;94842.63;5030169;28;19945;-76
2023/03/07 11:58:53;;;;;;;;;;;;;;;3.40;58.31;94821.28;5029669;28;19953;-75
2023/03/07 12:01:18;;;;;;;;;;;;;;;3.43;59.48;94824.25;5030280;28;19952;-75
2023/03/07 12:04:10;;;;;;;;;;;;;;;3.51;59.88;94824.97;5030472;28;19956;-74
2023/03/07 12:06:48;;;;;;;;;;;;;;;3.61;59.46;94807.94;5017073;28;19956;-74
2023/03/07 12:09:20;;;;;;;;;;;;;;;3.73;59.33;94808.00;5030379;28;19963;-74
2023/03/07 12:12:08;;;;;;;;;;;;;;;3.94;58.79;94793.03;5030472;28;19938;-74
2023/03/07 12:14:53;;;;;;;;;;;;;;;4.30;58.43;94791.41;5033215;28;20439;-74
2023/03/07 12:17:25;;;;;;;;;;;;;;;4.71;55.75;94756.13;5033527;28;19958;-74
2023/03/07 12:20:03;;;;;;;;;;;;;;;4.85;54.87;94747.91;5004574;28;19949;-74
2023/03/07 12:22:48;;;;;;;;;;;;;;;4.94;54.18;94763.97;5033123;28;19967;-74
2023/03/07 12:25:25;;;;;;;;;;;;;;;4.99;55.70;94773.69;5015644;28;20321;-74
2023/03/07 12:28:11;;;;;;;;;;;;;;;4.95;52.64;94734.34;5033626;28;19948;-74
2023/03/07 12:30:57;;;;;;;;;;;;;;;4.86;52.33;94739.09;5032623;28;19961;-74
2023/03/07 12:33:35;;;;;;;;;;;;;;;4.80;54.04;94752.19;4992932;28;19944;-75
2023/03/07 12:36:04;;;;;;;;;;;;;;;4.86;52.58;94733.13;5033085;28;20490;-74
2023/03/07 12:38:35;;;;;;;;;;;;;;;5.11;54.39;94745.13;5015532;28;19941;-74
2023/03/07 12:41:16;;;;;;;;;;;;;;;5.37;54.49;94736.06;5033003;28;19944;-74
2023/03/07 12:43:50;;;;;;;;;;;;;;;5.62;53.48;94712.41;5033224;28;19979;-74
2023/03/07 12:46:19;;;;;;;;;;;;;;;5.86;52.13;94700.16;5032869;28;19953;-74
2023/03/07 12:48:52;;;;;;;;;;;;;;;6.02;51.73;94706.47;5033263;28;20409;-75
2023/03/07 12:51:21;;;;;;;;;;;;;;;6.01;49.80;94684.09;5018068;28;19941;-74
2023/03/07 12:53:54;;;;;;;;;;;;;;;6.03;51.60;94723.66;5032739;28;19949;-74
2023/03/07 12:56:32;;;;;;;;;;;;;;;5.87;50.45;94707.72;5033696;28;19949;-74
2023/03/07 12:59:06;;;;;;;;;;;;;;;5.82;51.10;94723.25;5032977;28;20346;-74
2023/03/07 13:01:42;;;;;;;;;;;;;;;5.75;50.79;94713.97;5032714;28;19942;-74
2023/03/07 13:04:11;;;;;;;;;;;;;;;5.67;51.93;94730.75;5032844;28;19965;-74